Time,TemperatureF,DewpointF,PressureIn,WindDirection,WindDirectionDegrees,WindSpeedMPH,WindSpeedGustMPH,Humidity,HourlyPrecipIn,Conditions,Clouds,dailyrainin,SoftwareType,DateUTC
2013-05-27 00:01:00,51.9,38.5,30.11,NW,321,0.0,1.0,60,0.00,,---,0.00,VWS V14.00,2013-05-27 04:01:00,
2013-05-27 00:02:00,51.9,38.5,30.11,NW,321,0.0,1.0,60,0.00,,---,0.00,VWS V14.00,2013-05-27 04:02:00,
2013-05-27 00:05:00,51.9,38.5,30.10,NW,309,0.0,0.0,60,0.00,,---,0.00,VWS V14.00,2013-05-27 04:05:00,
2013-05-27 00:10:00,51.9,38.5,30.10,NW,311,0.0,0.0,60,0.00,,---,0.00,VWS V14.00,2013-05-27 04:10:00,
2013-05-27 00:15:00,51.6,38.2,30.10,NW,310,0.0,0.0,60,0.00,,---,0.00,VWS V14.00,2013-05-27 04:15:00,
2013-05-27 00:20:00,51.3,38.7,30.11,NW,311,0.0,0.0,62,0.00,,---,0.00,VWS V14.00,2013-05-27 04:20:00,
2013-05-27 00:25:00,51.3,38.7,30.11,West,259,0.0,1.0,62,0.00,,---,0.00,VWS V14.00,2013-05-27 04:25:00,
2013-05-27 00:30:00,51.4,38.8,30.11,WNW,302,1.0,3.0,62,0.00,,---,0.00,VWS V14.00,2013-05-27 04:30:00,
2013-05-27 00:35:00,51.5,38.5,30.11,WNW,293,1.0,3.0,61,0.00,,---,0.00,VWS V14.00,2013-05-27 04:35:00,
2013-05-27 00:41:00,51.6,38.6,30.11,NW,315,1.0,2.0,61,0.00,,---,0.00,VWS V14.00,2013-05-27 04:41:00,
2013-05-27 00:46:00,51.5,38.5,30.11,WNW,286,2.0,3.0,61,0.00,,---,0.00,VWS V14.00,2013-05-27 04:46:00,
2013-05-27 00:51:00,51.4,38.8,30.11,NW,318,0.0,2.0,62,0.00,,---,0.00,VWS V14.00,2013-05-27 04:51:00,
2013-05-27 00:56:00,51.3,38.7,30.11,WNW,287,1.0,2.0,62,0.00,,---,0.00,VWS V14.00,2013-05-27 04:56:00,
2013-05-27 01:01:00,51.2,39.0,30.11,WNW,286,0.0,2.0,63,0.00,,---,0.00,VWS V14.00,2013-05-27 05:01:00,
2013-05-27 01:06:00,51.0,39.3,30.11,WNW,290,1.0,4.0,64,0.00,,---,0.00,VWS V14.00,2013-05-27 05:06:00,
2013-05-27 01:11:00,51.1,39.4,30.11,West,276,3.0,3.0,64,0.00,,---,0.00,VWS V14.00,2013-05-27 05:11:00,
2013-05-27 01:16:00,50.9,39.2,30.11,WSW,256,0.0,3.0,64,0.00,,---,0.00,VWS V14.00,2013-05-27 05:16:00,
2013-05-27 01:21:00,50.7,39.4,30.11,WNW,287,1.0,2.0,65,0.00,,---,0.00,VWS V14.00,2013-05-27 05:21:00,
2013-05-27 01:26:00,50.4,39.5,30.11,West,274,1.0,1.0,66,0.00,,---,0.00,VWS V14.00,2013-05-27 05:26:00,
2013-05-27 01:31:00,50.3,39.4,30.11,West,274,1.0,1.0,66,0.00,,---,0.00,VWS V14.00,2013-05-27 05:31:00,
2013-05-27 01:36:00,50.0,39.5,30.11,WNW,285,0.0,1.0,67,0.00,,---,0.00,VWS V14.00,2013-05-27 05:36:00,
2013-05-27 01:41:00,49.7,39.2,30.11,WNW,285,0.0,0.0,67,0.00,,---,0.00,VWS V14.00,2013-05-27 05:41:00,
2013-05-27 01:47:00,49.2,39.1,30.11,WNW,285,0.0,0.0,68,0.00,,---,0.00,VWS V14.00,2013-05-27 05:47:00,
2013-05-27 01:52:00,48.6,38.5,30.11,WNW,285,0.0,0.0,68,0.00,,---,0.00,VWS V14.00,2013-05-27 05:52:00,
2013-05-27 01:57:00,47.9,38.6,30.11,WNW,285,0.0,0.0,70,0.00,,---,0.00,VWS V14.00,2013-05-27 05:57:00,
2013-05-27 02:02:00,47.4,38.8,30.11,WNW,285,0.0,0.0,72,0.00,,---,0.00,VWS V14.00,2013-05-27 06:02:00,
2013-05-27 02:07:00,47.2,39.7,30.11,WNW,285,0.0,0.0,75,0.00,,---,0.00,VWS V14.00,2013-05-27 06:07:00,
2013-05-27 02:12:00,47.0,39.5,30.11,WNW,285,0.0,0.0,75,0.00,,---,0.00,VWS V14.00,2013-05-27 06:12:00,
2013-05-27 02:17:00,46.8,39.7,30.11,WNW,285,0.0,0.0,76,0.00,,---,0.00,VWS V14.00,2013-05-27 06:17:00,
2013-05-27 02:22:00,46.5,39.7,30.11,WNW,285,0.0,0.0,77,0.00,,---,0.00,VWS V14.00,2013-05-27 06:22:00,
2013-05-27 02:27:00,46.3,39.8,30.11,WNW,285,0.0,0.0,78,0.00,,---,0.00,VWS V14.00,2013-05-27 06:27:00,
2013-05-27 02:32:00,45.9,40.1,30.11,WNW,285,0.0,0.0,80,0.00,,---,0.00,VWS V14.00,2013-05-27 06:32:00,
2013-05-27 02:37:00,45.6,39.8,30.11,WNW,285,0.0,0.0,80,0.00,,---,0.00,VWS V14.00,2013-05-27 06:37:00,
2013-05-27 02:42:00,45.3,39.8,30.11,WNW,285,0.0,0.0,81,0.00,,---,0.00,VWS V14.00,2013-05-27 06:42:00,
2013-05-27 02:48:00,45.3,40.1,30.11,WNW,285,0.0,0.0,82,0.00,,---,0.00,VWS V14.00,2013-05-27 06:48:00,
2013-05-27 02:53:00,45.1,39.9,30.11,WNW,285,0.0,0.0,82,0.00,,---,0.00,VWS V14.00,2013-05-27 06:53:00,
2013-05-27 02:58:00,44.7,39.5,30.11,WNW,285,0.0,0.0,82,0.00,,---,0.00,VWS V14.00,2013-05-27 06:58:00,
2013-05-27 03:03:00,44.5,39.7,30.11,WNW,285,0.0,0.0,83,0.00,,---,0.00,VWS V14.00,2013-05-27 07:03:00,
2013-05-27 03:08:00,44.4,39.9,30.11,WNW,285,0.0,0.0,84,0.00,,---,0.00,VWS V14.00,2013-05-27 07:08:00,
2013-05-27 03:13:00,44.3,40.1,30.12,WNW,285,0.0,0.0,85,0.00,,---,0.00,VWS V14.00,2013-05-27 07:13:00,
2013-05-27 03:18:00,44.4,39.9,30.12,West,269,0.0,1.0,84,0.00,,---,0.00,VWS V14.00,2013-05-27 07:18:00,
2013-05-27 03:23:00,45.2,39.4,30.12,West,267,0.0,1.0,80,0.00,,---,0.00,VWS V14.00,2013-05-27 07:23:00,
2013-05-27 03:28:00,46.1,39.3,30.12,West,260,1.0,3.0,77,0.00,,---,0.00,VWS V14.00,2013-05-27 07:28:00,
2013-05-27 03:33:00,47.5,38.9,30.12,West,280,2.0,6.0,72,0.00,,---,0.00,VWS V14.00,2013-05-27 07:33:00,
2013-05-27 03:38:00,48.3,39.0,30.12,West,281,1.0,2.0,70,0.00,,---,0.00,VWS V14.00,2013-05-27 07:38:00,
2013-05-27 03:43:00,48.5,38.8,30.12,NW,307,1.0,2.0,69,0.00,,---,0.00,VWS V14.00,2013-05-27 07:43:00,
2013-05-27 03:49:00,48.8,38.7,30.11,West,269,1.0,2.0,68,0.00,,---,0.00,VWS V14.00,2013-05-27 07:49:00,
2013-05-27 03:54:00,48.8,38.7,30.12,West,263,1.0,1.0,68,0.00,,---,0.00,VWS V14.00,2013-05-27 07:54:00,
2013-05-27 03:59:00,48.9,38.8,30.12,West,276,4.0,5.0,68,0.00,,---,0.00,VWS V14.00,2013-05-27 07:59:00,
2013-05-27 04:04:00,48.8,38.7,30.12,WNW,291,3.0,3.0,68,0.00,,---,0.00,VWS V14.00,2013-05-27 08:04:00,
2013-05-27 04:09:00,48.8,39.1,30.12,WNW,295,2.0,4.0,69,0.00,,---,0.00,VWS V14.00,2013-05-27 08:09:00,
2013-05-27 04:14:00,48.8,39.1,30.12,WNW,302,4.0,5.0,69,0.00,,---,0.00,VWS V14.00,2013-05-27 08:14:00,
2013-05-27 04:19:00,48.7,39.0,30.12,West,271,2.0,5.0,69,0.00,,---,0.00,VWS V14.00,2013-05-27 08:19:00,
2013-05-27 04:24:00,48.6,38.9,30.12,West,264,4.0,4.0,69,0.00,,---,0.00,VWS V14.00,2013-05-27 08:24:00,
2013-05-27 04:29:00,48.6,38.9,30.12,WNW,290,3.0,5.0,69,0.00,,---,0.00,VWS V14.00,2013-05-27 08:29:00,
2013-05-27 04:34:00,48.6,38.9,30.12,NW,312,4.0,6.0,69,0.00,,---,0.00,VWS V14.00,2013-05-27 08:34:00,
2013-05-27 04:39:00,48.6,38.9,30.12,WNW,290,1.0,3.0,69,0.00,,---,0.00,VWS V14.00,2013-05-27 08:39:00,
2013-05-27 04:44:00,48.7,38.6,30.12,West,267,4.0,6.0,68,0.00,,---,0.00,VWS V14.00,2013-05-27 08:44:00,
2013-05-27 04:49:00,48.8,38.7,30.13,WNW,295,4.0,7.0,68,0.00,,---,0.00,VWS V14.00,2013-05-27 08:49:00,
2013-05-27 04:55:00,48.7,38.6,30.13,WNW,290,1.0,4.0,68,0.00,,---,0.00,VWS V14.00,2013-05-27 08:55:00,
2013-05-27 05:00:00,48.3,38.6,30.13,WNW,299,1.0,5.0,69,0.00,,---,0.00,VWS V14.00,2013-05-27 09:00:00,
2013-05-27 05:05:00,48.4,38.7,30.13,WNW,294,2.0,6.0,69,0.00,,---,0.00,VWS V14.00,2013-05-27 09:05:00,
2013-05-27 05:10:00,48.5,38.8,30.13,WNW,300,2.0,6.0,69,0.00,,---,0.00,VWS V14.00,2013-05-27 09:10:00,
2013-05-27 05:15:00,48.5,38.8,30.13,WNW,283,1.0,5.0,69,0.00,,---,0.00,VWS V14.00,2013-05-27 09:15:00,
2013-05-27 05:20:00,48.5,38.8,30.13,West,280,5.0,5.0,69,0.00,,---,0.00,VWS V14.00,2013-05-27 09:20:00,
2013-05-27 05:25:00,48.5,38.8,30.13,WSW,253,2.0,2.0,69,0.00,,---,0.00,VWS V14.00,2013-05-27 09:25:00,
2013-05-27 05:30:00,48.3,38.6,30.13,West,276,0.0,1.0,69,0.00,,---,0.00,VWS V14.00,2013-05-27 09:30:00,
2013-05-27 05:35:00,48.1,38.8,30.13,West,271,1.0,3.0,70,0.00,,---,0.00,VWS V14.00,2013-05-27 09:35:00,
2013-05-27 05:40:00,47.9,38.6,30.13,West,273,0.0,1.0,70,0.00,,---,0.00,VWS V14.00,2013-05-27 09:40:00,
2013-05-27 05:45:00,47.7,38.8,30.13,West,280,1.0,3.0,71,0.00,,---,0.00,VWS V14.00,2013-05-27 09:45:00,
2013-05-27 05:50:00,47.6,38.7,30.13,NW,305,1.0,2.0,71,0.00,,---,0.00,VWS V14.00,2013-05-27 09:50:00,
2013-05-27 05:55:00,46.7,37.5,30.13,West,267,1.0,2.0,70,0.00,,---,0.00,VWS V14.00,2013-05-27 09:55:00,
2013-05-27 06:01:00,56.8,0.0,30.14,WNW,284,0.0,0.0,0,0.00,,---,0.00,VWS V14.00,2013-05-27 10:01:00,
2013-05-27 06:06:00,56.8,0.0,30.14,WNW,284,0.0,0.0,0,0.00,,---,0.00,VWS V14.00,2013-05-27 10:06:00,
2013-05-27 06:11:00,56.8,0.0,30.14,WNW,284,0.0,0.0,0,0.00,,---,0.00,VWS V14.00,2013-05-27 10:11:00,
2013-05-27 06:16:00,56.8,0.0,30.14,WNW,284,0.0,0.0,0,0.00,,---,0.00,VWS V14.00,2013-05-27 10:16:00,
2013-05-27 06:21:00,56.8,0.0,30.14,WNW,284,0.0,0.0,0,0.00,,---,0.00,VWS V14.00,2013-05-27 10:21:00,
2013-05-27 06:26:00,56.8,0.0,30.14,WNW,284,0.0,0.0,0,0.00,,---,0.00,VWS V14.00,2013-05-27 10:26:00,
2013-05-27 06:31:00,56.8,0.0,30.14,WNW,284,0.0,0.0,0,0.00,,---,0.00,VWS V14.00,2013-05-27 10:31:00,
2013-05-27 06:36:00,56.8,0.0,30.14,WNW,284,0.0,0.0,0,0.00,,---,0.00,VWS V14.00,2013-05-27 10:36:00,
2013-05-27 06:41:00,56.8,0.0,30.14,WNW,284,0.0,0.0,0,0.00,,---,0.00,VWS V14.00,2013-05-27 10:41:00,
2013-05-27 06:46:00,56.8,0.0,30.14,WNW,284,0.0,0.0,0,0.00,,---,0.00,VWS V14.00,2013-05-27 10:46:00,
2013-05-27 06:51:00,52.4,39.8,30.14,WNW,292,1.0,3.0,62,0.00,,---,0.00,VWS V14.00,2013-05-27 10:51:00,
2013-05-27 06:56:00,52.8,39.3,30.14,WNW,290,3.0,4.0,60,0.00,,---,0.00,VWS V14.00,2013-05-27 10:56:00,
2013-05-27 07:01:00,53.2,39.3,30.14,WNW,303,1.0,5.0,59,0.00,,---,0.00,VWS V14.00,2013-05-27 11:01:00,
2013-05-27 07:07:00,53.6,39.2,30.14,WNW,303,3.0,3.0,58,0.00,,---,0.00,VWS V14.00,2013-05-27 11:07:00,
2013-05-27 07:12:00,54.0,39.1,30.14,NW,314,1.0,5.0,57,0.00,,---,0.00,VWS V14.00,2013-05-27 11:12:00,
2013-05-27 07:17:00,54.4,39.0,30.14,NW,317,4.0,4.0,56,0.00,,---,0.00,VWS V14.00,2013-05-27 11:17:00,
2013-05-27 07:22:00,54.8,39.0,30.14,WNW,297,3.0,6.0,55,0.00,,---,0.00,VWS V14.00,2013-05-27 11:22:00,
2013-05-27 07:27:00,55.0,38.7,30.14,West,262,4.0,7.0,54,0.00,,---,0.00,VWS V14.00,2013-05-27 11:27:00,
2013-05-27 07:32:00,55.1,38.8,30.14,WNW,285,4.0,8.0,54,0.00,,---,0.00,VWS V14.00,2013-05-27 11:32:00,
2013-05-27 07:37:00,55.5,38.7,30.14,NW,319,5.0,6.0,53,0.00,,---,0.00,VWS V14.00,2013-05-27 11:37:00,
2013-05-27 07:42:00,55.9,39.0,30.14,WNW,293,5.0,7.0,53,0.00,,---,0.00,VWS V14.00,2013-05-27 11:42:00,
2013-05-27 07:47:00,56.0,39.1,30.15,West,264,4.0,8.0,53,0.00,,---,0.00,VWS V14.00,2013-05-27 11:47:00,
2013-05-27 07:52:00,56.2,39.3,30.15,West,273,2.0,10.0,53,0.00,,---,0.00,VWS V14.00,2013-05-27 11:52:00,
2013-05-27 07:57:00,56.6,39.7,30.15,WNW,283,2.0,8.0,53,0.00,,---,0.00,VWS V14.00,2013-05-27 11:57:00,
2013-05-27 08:02:00,57.0,40.1,30.15,WNW,295,4.0,6.0,53,0.00,,---,0.00,VWS V14.00,2013-05-27 12:02:00,
2013-05-27 08:07:00,57.3,39.3,30.15,WNW,286,6.0,9.0,51,0.00,,---,0.00,VWS V14.00,2013-05-27 12:07:00,
2013-05-27 08:12:00,57.7,39.7,30.15,West,267,3.0,8.0,51,0.00,,---,0.00,VWS V14.00,2013-05-27 12:12:00,
2013-05-27 08:18:00,58.4,39.8,30.15,NW,318,6.0,6.0,50,0.00,,---,0.00,VWS V14.00,2013-05-27 12:18:00,
2013-05-27 08:23:00,58.5,39.4,30.15,WNW,295,7.0,8.0,49,0.00,,---,0.00,VWS V14.00,2013-05-27 12:23:00,
2013-05-27 08:28:00,58.6,40.0,30.15,WNW,286,2.0,6.0,50,0.00,,---,0.00,VWS V14.00,2013-05-27 12:28:00,
2013-05-27 08:33:00,59.1,40.0,30.15,NW,315,3.0,6.0,49,0.00,,---,0.00,VWS V14.00,2013-05-27 12:33:00,
2013-05-27 08:38:00,59.3,40.2,30.15,NW,304,1.0,6.0,49,0.00,,---,0.00,VWS V14.00,2013-05-27 12:38:00,
2013-05-27 08:43:00,59.6,40.4,30.15,WSW,255,3.0,7.0,49,0.00,,---,0.00,VWS V14.00,2013-05-27 12:43:00,
2013-05-27 08:48:00,59.9,40.7,30.15,NW,325,3.0,7.0,49,0.00,,---,0.00,VWS V14.00,2013-05-27 12:48:00,
2013-05-27 08:53:00,60.5,41.3,30.15,West,271,2.0,5.0,49,0.00,,---,0.00,VWS V14.00,2013-05-27 12:53:00,
2013-05-27 08:58:00,60.6,40.8,30.14,NW,321,4.0,7.0,48,0.00,,---,0.00,VWS V14.00,2013-05-27 12:58:00,
2013-05-27 09:03:00,61.3,40.9,30.14,NW,308,3.0,3.0,47,0.00,,---,0.00,VWS V14.00,2013-05-27 13:03:00,
2013-05-27 09:08:00,61.7,40.7,30.14,NNW,329,0.0,1.0,46,0.00,,---,0.00,VWS V14.00,2013-05-27 13:08:00,
2013-05-27 09:14:00,62.5,41.5,30.14,NW,304,6.0,7.0,46,0.00,,---,0.00,VWS V14.00,2013-05-27 13:14:00,
2013-05-27 09:19:00,62.8,41.2,30.14,West,278,6.0,6.0,45,0.00,,---,0.00,VWS V14.00,2013-05-27 13:19:00,
2013-05-27 09:24:00,63.1,40.9,30.14,WNW,284,6.0,6.0,44,0.00,,---,0.00,VWS V14.00,2013-05-27 13:24:00,
2013-05-27 09:29:00,63.2,41.0,30.14,NW,309,2.0,2.0,44,0.00,,---,0.00,VWS V14.00,2013-05-27 13:29:00,
2013-05-27 09:34:00,63.7,41.4,30.14,WSW,248,5.0,6.0,44,0.00,,---,0.00,VWS V14.00,2013-05-27 13:34:00,
2013-05-27 09:39:00,64.0,41.7,30.14,NW,321,2.0,4.0,44,0.00,,---,0.00,VWS V14.00,2013-05-27 13:39:00,
2013-05-27 09:44:00,64.4,42.0,30.14,NW,316,3.0,4.0,44,0.00,,---,0.00,VWS V14.00,2013-05-27 13:44:00,
2013-05-27 09:49:00,65.1,41.5,30.14,NW,316,1.0,4.0,42,0.00,,---,0.00,VWS V14.00,2013-05-27 13:49:00,
2013-05-27 09:54:00,65.8,40.8,30.14,NW,304,4.0,4.0,40,0.00,,---,0.00,VWS V14.00,2013-05-27 13:54:00,
2013-05-27 09:59:00,65.6,41.3,30.14,SW,222,3.0,4.0,41,0.00,,---,0.00,VWS V14.00,2013-05-27 13:59:00,
2013-05-27 10:04:00,66.0,41.7,30.14,South,180,4.0,4.0,41,0.00,,---,0.00,VWS V14.00,2013-05-27 14:04:00,
2013-05-27 10:09:00,66.9,41.8,30.14,WNW,290,3.0,5.0,40,0.00,,---,0.00,VWS V14.00,2013-05-27 14:09:00,
2013-05-27 10:14:00,66.7,41.0,30.14,WNW,289,4.0,8.0,39,0.00,,---,0.00,VWS V14.00,2013-05-27 14:14:00,
2013-05-27 10:20:00,67.6,41.8,30.14,West,281,1.0,3.0,39,0.00,,---,0.00,VWS V14.00,2013-05-27 14:20:00,
2013-05-27 10:25:00,67.4,40.9,30.14,NW,311,8.0,10.0,38,0.00,,---,0.00,VWS V14.00,2013-05-27 14:25:00,
2013-05-27 10:30:00,67.3,40.2,30.14,WNW,300,6.0,7.0,37,0.00,,---,0.00,VWS V14.00,2013-05-27 14:30:00,
2013-05-27 10:35:00,67.1,40.7,30.13,NW,315,3.0,7.0,38,0.00,,---,0.00,VWS V14.00,2013-05-27 14:35:00,
2013-05-27 10:40:00,66.7,40.3,30.13,North,354,1.0,9.0,38,0.00,,---,0.00,VWS V14.00,2013-05-27 14:40:00,
2013-05-27 10:45:00,67.5,41.0,30.13,WSW,238,1.0,4.0,38,0.00,,---,0.00,VWS V14.00,2013-05-27 14:45:00,
2013-05-27 10:50:00,68.4,41.1,30.13,SSW,212,0.0,4.0,37,0.00,,---,0.00,VWS V14.00,2013-05-27 14:50:00,
2013-05-27 10:55:00,68.7,41.4,30.13,West,281,3.0,10.0,37,0.00,,---,0.00,VWS V14.00,2013-05-27 14:55:00,
2013-05-27 11:00:00,68.8,40.1,30.13,West,270,5.0,10.0,35,0.00,,---,0.00,VWS V14.00,2013-05-27 15:00:00,
2013-05-27 11:05:00,69.7,39.3,30.13,WNW,300,4.0,7.0,33,0.00,,---,0.00,VWS V14.00,2013-05-27 15:05:00,
2013-05-27 11:10:00,69.1,38.8,30.13,West,264,3.0,7.0,33,0.00,,---,0.00,VWS V14.00,2013-05-27 15:10:00,
2013-05-27 11:15:00,68.9,39.4,30.13,West,274,4.0,13.0,34,0.00,,---,0.00,VWS V14.00,2013-05-27 15:15:00,
2013-05-27 11:21:00,68.9,38.6,30.12,WNW,300,2.0,6.0,33,0.00,,---,0.00,VWS V14.00,2013-05-27 15:21:00,
2013-05-27 11:26:00,69.1,38.0,30.12,NW,322,2.0,7.0,32,0.00,,---,0.00,VWS V14.00,2013-05-27 15:26:00,
2013-05-27 11:31:00,69.3,37.4,30.12,WNW,294,4.0,8.0,31,0.00,,---,0.00,VWS V14.00,2013-05-27 15:31:00,
2013-05-27 11:36:00,70.2,39.0,30.12,NW,318,5.0,6.0,32,0.00,,---,0.00,VWS V14.00,2013-05-27 15:36:00,
2013-05-27 11:41:00,70.7,37.8,30.11,NW,324,5.0,13.0,30,0.00,,---,0.00,VWS V14.00,2013-05-27 15:41:00,
2013-05-27 11:46:00,70.2,36.5,30.11,WSW,247,1.0,9.0,29,0.00,,---,0.00,VWS V14.00,2013-05-27 15:46:00,
2013-05-27 11:51:00,71.2,36.5,30.11,SW,221,3.0,8.0,28,0.00,,---,0.00,VWS V14.00,2013-05-27 15:51:00,
2013-05-27 11:56:00,71.7,37.8,30.11,SW,219,1.0,9.0,29,0.00,,---,0.00,VWS V14.00,2013-05-27 15:56:00,
2013-05-27 12:01:00,72.3,37.4,30.10,NW,315,3.0,6.0,28,0.00,,---,0.00,VWS V14.00,2013-05-27 16:01:00,
2013-05-27 12:06:00,72.2,36.4,30.10,West,269,7.0,9.0,27,0.00,,---,0.00,VWS V14.00,2013-05-27 16:06:00,
2013-05-27 12:12:00,71.5,35.8,30.10,NW,309,4.0,11.0,27,0.00,,---,0.00,VWS V14.00,2013-05-27 16:12:00,
2013-05-27 12:17:00,71.2,34.6,30.10,NNE,22,5.0,9.0,26,0.00,,---,0.00,VWS V14.00,2013-05-27 16:17:00,
2013-05-27 12:22:00,71.5,36.7,30.10,NW,311,4.0,6.0,28,0.00,,---,0.00,VWS V14.00,2013-05-27 16:22:00,
2013-05-27 12:27:00,72.1,36.3,30.10,West,264,9.0,10.0,27,0.00,,---,0.00,VWS V14.00,2013-05-27 16:27:00,
2013-05-27 12:32:00,71.7,36.9,30.10,NNW,338,6.0,11.0,28,0.00,,---,0.00,VWS V14.00,2013-05-27 16:32:00,
2013-05-27 12:37:00,71.4,38.4,30.09,NW,317,6.0,11.0,30,0.00,,---,0.00,VWS V14.00,2013-05-27 16:37:00,
2013-05-27 12:42:00,71.9,37.1,30.09,NW,311,4.0,10.0,28,0.00,,---,0.00,VWS V14.00,2013-05-27 16:42:00,
2013-05-27 12:47:00,72.0,37.1,30.09,NNE,23,2.0,11.0,28,0.00,,---,0.00,VWS V14.00,2013-05-27 16:47:00,
2013-05-27 12:52:00,72.6,36.7,30.09,NE,36,8.0,10.0,27,0.00,,---,0.00,VWS V14.00,2013-05-27 16:52:00,
2013-05-27 12:57:00,72.5,37.6,30.09,NW,315,8.0,15.0,28,0.00,,---,0.00,VWS V14.00,2013-05-27 16:57:00,
2013-05-27 13:02:00,72.6,37.7,30.08,NW,315,3.0,11.0,28,0.00,,---,0.00,VWS V14.00,2013-05-27 17:02:00,
2013-05-27 13:07:00,72.2,38.2,30.08,NNE,29,6.0,11.0,29,0.00,,---,0.00,VWS V14.00,2013-05-27 17:07:00,
2013-05-27 13:13:00,72.0,38.0,30.08,NNW,333,0.0,11.0,29,0.00,,---,0.00,VWS V14.00,2013-05-27 17:13:00,
2013-05-27 13:18:00,73.3,39.2,30.08,NW,309,0.0,6.0,29,0.00,,---,0.00,VWS V14.00,2013-05-27 17:18:00,
2013-05-27 13:23:00,74.0,38.9,30.07,SW,226,3.0,12.0,28,0.00,,---,0.00,VWS V14.00,2013-05-27 17:23:00,
2013-05-27 13:28:00,74.2,38.1,30.07,NW,318,7.0,10.0,27,0.00,,---,0.00,VWS V14.00,2013-05-27 17:28:00,
2013-05-27 13:33:00,74.2,39.0,30.07,NNW,341,5.0,11.0,28,0.00,,---,0.00,VWS V14.00,2013-05-27 17:33:00,
2013-05-27 13:38:00,74.4,39.2,30.07,SW,222,3.0,13.0,28,0.00,,---,0.00,VWS V14.00,2013-05-27 17:38:00,
2013-05-27 13:43:00,74.6,39.4,30.07,NW,319,3.0,6.0,28,0.00,,---,0.00,VWS V14.00,2013-05-27 17:43:00,
2013-05-27 13:48:00,74.7,39.5,30.07,North,353,3.0,8.0,28,0.00,,---,0.00,VWS V14.00,2013-05-27 17:48:00,
2013-05-27 13:53:00,74.5,40.2,30.06,West,274,3.0,8.0,29,0.00,,---,0.00,VWS V14.00,2013-05-27 17:53:00,
2013-05-27 13:58:00,75.2,40.8,30.06,WNW,290,6.0,12.0,29,0.00,,---,0.00,VWS V14.00,2013-05-27 17:58:00,
2013-05-27 14:03:00,74.5,39.3,30.06,WNW,290,4.0,10.0,28,0.00,,---,0.00,VWS V14.00,2013-05-27 18:03:00,
2013-05-27 14:08:00,74.6,39.4,30.06,WSW,242,4.0,6.0,28,0.00,,---,0.00,VWS V14.00,2013-05-27 18:08:00,
2013-05-27 14:13:00,75.1,40.7,30.06,SW,219,3.0,4.0,29,0.00,,---,0.00,VWS V14.00,2013-05-27 18:13:00,
2013-05-27 14:18:00,75.5,40.2,30.05,WSW,253,3.0,10.0,28,0.00,,---,0.00,VWS V14.00,2013-05-27 18:18:00,
2013-05-27 14:23:00,76.0,41.5,30.06,NW,307,6.0,7.0,29,0.00,,---,0.00,VWS V14.00,2013-05-27 18:23:00,
2013-05-27 14:28:00,75.9,40.5,30.06,NE,46,1.0,8.0,28,0.00,,---,0.00,VWS V14.00,2013-05-27 18:28:00,
2013-05-27 14:33:00,76.6,41.1,30.05,SW,236,3.0,4.0,28,0.00,,---,0.00,VWS V14.00,2013-05-27 18:33:00,
2013-05-27 14:38:00,76.5,41.0,30.05,NW,304,7.0,7.0,28,0.00,,---,0.00,VWS V14.00,2013-05-27 18:38:00,
2013-05-27 14:44:00,76.0,40.6,30.05,West,264,2.0,2.0,28,0.00,,---,0.00,VWS V14.00,2013-05-27 18:44:00,
2013-05-27 14:49:00,75.5,40.2,30.04,North,349,4.0,7.0,28,0.00,,---,0.00,VWS V14.00,2013-05-27 18:49:00,
2013-05-27 14:54:00,75.8,41.3,30.04,SSW,205,6.0,6.0,29,0.00,,---,0.00,VWS V14.00,2013-05-27 18:54:00,
2013-05-27 14:59:00,76.1,40.7,30.04,WNW,285,1.0,2.0,28,0.00,,---,0.00,VWS V14.00,2013-05-27 18:59:00,
2013-05-27 15:04:00,76.4,40.0,30.04,WSW,239,3.0,5.0,27,0.00,,---,0.00,VWS V14.00,2013-05-27 19:04:00,
2013-05-27 15:09:00,76.7,40.2,30.04,WNW,300,9.0,10.0,27,0.00,,---,0.00,VWS V14.00,2013-05-27 19:09:00,
2013-05-27 15:14:00,76.6,41.1,30.03,West,271,2.0,4.0,28,0.00,,---,0.00,VWS V14.00,2013-05-27 19:14:00,
2013-05-27 15:19:00,76.5,39.1,30.03,WNW,293,3.0,5.0,26,0.00,,---,0.00,VWS V14.00,2013-05-27 19:19:00,
2013-05-27 15:24:00,76.2,39.8,30.03,NNW,336,5.0,7.0,27,0.00,,---,0.00,VWS V14.00,2013-05-27 19:24:00,
2013-05-27 15:29:00,76.1,39.7,30.03,NW,313,1.0,5.0,27,0.00,,---,0.00,VWS V14.00,2013-05-27 19:29:00,
2013-05-27 15:34:00,75.9,38.6,30.02,NW,319,2.0,3.0,26,0.00,,---,0.00,VWS V14.00,2013-05-27 19:34:00,
2013-05-27 15:39:00,76.9,39.4,30.02,ENE,73,4.0,8.0,26,0.00,,---,0.00,VWS V14.00,2013-05-27 19:39:00,
2013-05-27 15:44:00,77.6,39.0,30.02,WSW,238,5.0,9.0,25,0.00,,---,0.00,VWS V14.00,2013-05-27 19:44:00,
2013-05-27 15:50:00,77.4,39.9,30.02,SSW,204,1.0,4.0,26,0.00,,---,0.00,VWS V14.00,2013-05-27 19:50:00,
2013-05-27 15:55:00,77.3,38.8,30.02,SSW,212,3.0,10.0,25,0.00,,---,0.00,VWS V14.00,2013-05-27 19:55:00,
2013-05-27 16:00:00,77.2,38.7,30.02,SE,144,1.0,13.0,25,0.00,,---,0.00,VWS V14.00,2013-05-27 20:00:00,
2013-05-27 16:05:00,77.5,38.9,30.02,WNW,294,4.0,4.0,25,0.00,,---,0.00,VWS V14.00,2013-05-27 20:05:00,
2013-05-27 16:10:00,78.2,40.5,30.02,WSW,246,2.0,7.0,26,0.00,,---,0.00,VWS V14.00,2013-05-27 20:10:00,
2013-05-27 16:15:00,77.7,39.1,30.02,NW,316,8.0,9.0,25,0.00,,---,0.00,VWS V14.00,2013-05-27 20:15:00,
2013-05-27 16:20:00,77.3,37.7,30.02,SE,138,0.0,3.0,24,0.00,,---,0.00,VWS V14.00,2013-05-27 20:20:00,
2013-05-27 16:25:00,77.9,38.2,30.01,WSW,253,4.0,4.0,24,0.00,,---,0.00,VWS V14.00,2013-05-27 20:25:00,
2013-05-27 16:30:00,78.4,37.6,30.01,NW,316,4.0,6.0,23,0.00,,---,0.00,VWS V14.00,2013-05-27 20:30:00,
2013-05-27 16:35:00,79.2,39.3,30.01,NW,321,3.0,3.0,24,0.00,,---,0.00,VWS V14.00,2013-05-27 20:35:00,
2013-05-27 16:40:00,78.6,37.7,30.01,WNW,301,6.0,9.0,23,0.00,,---,0.00,VWS V14.00,2013-05-27 20:40:00,
2013-05-27 16:45:00,77.8,38.2,30.01,WNW,299,2.0,10.0,24,0.00,,---,0.00,VWS V14.00,2013-05-27 20:45:00,
2013-05-27 16:50:00,77.7,37.0,30.01,NW,315,7.0,12.0,23,0.00,,---,0.00,VWS V14.00,2013-05-27 20:50:00,
2013-05-27 16:56:00,77.5,36.8,30.01,WSW,257,6.0,8.0,23,0.00,,---,0.00,VWS V14.00,2013-05-27 20:56:00,
2013-05-27 17:01:00,77.7,37.0,30.01,WNW,294,4.0,6.0,23,0.00,,---,0.00,VWS V14.00,2013-05-27 21:01:00,
2013-05-27 17:06:00,78.0,37.2,30.01,West,281,4.0,7.0,23,0.00,,---,0.00,VWS V14.00,2013-05-27 21:06:00,
2013-05-27 17:11:00,77.5,37.9,30.01,SW,231,3.0,9.0,24,0.00,,---,0.00,VWS V14.00,2013-05-27 21:11:00,
2013-05-27 17:16:00,77.9,38.2,30.01,WSW,246,5.0,12.0,24,0.00,,---,0.00,VWS V14.00,2013-05-27 21:16:00,
2013-05-27 17:21:00,77.8,38.2,30.01,WSW,238,6.0,7.0,24,0.00,,---,0.00,VWS V14.00,2013-05-27 21:21:00,
2013-05-27 17:26:00,77.6,40.0,30.01,SW,224,2.0,14.0,26,0.00,,---,0.00,VWS V14.00,2013-05-27 21:26:00,
2013-05-27 17:31:00,77.8,40.2,30.01,SSW,207,3.0,10.0,26,0.00,,---,0.00,VWS V14.00,2013-05-27 21:31:00,
2013-05-27 17:36:00,78.0,40.4,30.01,SW,228,4.0,11.0,26,0.00,,---,0.00,VWS V14.00,2013-05-27 21:36:00,
2013-05-27 17:41:00,77.9,40.3,30.01,SW,235,4.0,8.0,26,0.00,,---,0.00,VWS V14.00,2013-05-27 21:41:00,
2013-05-27 17:46:00,77.8,38.2,30.01,ENE,62,1.0,9.0,24,0.00,,---,0.00,VWS V14.00,2013-05-27 21:46:00,
2013-05-27 17:51:00,77.7,39.1,30.01,NW,322,4.0,6.0,25,0.00,,---,0.00,VWS V14.00,2013-05-27 21:51:00,
2013-05-27 17:57:00,77.5,38.9,30.01,WSW,243,4.0,6.0,25,0.00,,---,0.00,VWS V14.00,2013-05-27 21:57:00,
2013-05-27 18:02:00,77.4,39.9,30.01,WNW,298,1.0,5.0,26,0.00,,---,0.00,VWS V14.00,2013-05-27 22:02:00,
2013-05-27 18:07:00,77.3,39.8,30.01,WSW,237,1.0,7.0,26,0.00,,---,0.00,VWS V14.00,2013-05-27 22:07:00,
2013-05-27 18:12:00,77.1,40.6,30.01,South,177,4.0,5.0,27,0.00,,---,0.00,VWS V14.00,2013-05-27 22:12:00,
2013-05-27 18:17:00,76.8,40.3,30.01,West,259,8.0,8.0,27,0.00,,---,0.00,VWS V14.00,2013-05-27 22:17:00,
2013-05-27 18:22:00,76.9,39.4,30.01,NW,308,1.0,3.0,26,0.00,,---,0.00,VWS V14.00,2013-05-27 22:22:00,
2013-05-27 18:27:00,76.9,39.4,30.01,West,260,4.0,7.0,26,0.00,,---,0.00,VWS V14.00,2013-05-27 22:27:00,
2013-05-27 18:32:00,76.8,39.3,30.01,West,273,7.0,7.0,26,0.00,,---,0.00,VWS V14.00,2013-05-27 22:32:00,
2013-05-27 18:37:00,77.0,40.5,30.01,WSW,252,2.0,8.0,27,0.00,,---,0.00,VWS V14.00,2013-05-27 22:37:00,
2013-05-27 18:42:00,77.2,39.7,30.01,SW,217,1.0,7.0,26,0.00,,---,0.00,VWS V14.00,2013-05-27 22:42:00,
2013-05-27 18:47:00,77.2,39.7,30.01,West,278,3.0,6.0,26,0.00,,---,0.00,VWS V14.00,2013-05-27 22:47:00,
2013-05-27 18:53:00,76.6,42.0,30.01,West,273,6.0,6.0,29,0.00,,---,0.00,VWS V14.00,2013-05-27 22:53:00,
2013-05-27 18:58:00,75.7,42.1,30.01,WSW,238,3.0,12.0,30,0.00,,---,0.00,VWS V14.00,2013-05-27 22:58:00,
2013-05-27 19:03:00,75.3,42.6,30.01,South,172,2.0,8.0,31,0.00,,---,0.00,VWS V14.00,2013-05-27 23:03:00,
2013-05-27 19:08:00,74.8,41.3,30.02,WSW,243,6.0,11.0,30,0.00,,---,0.00,VWS V14.00,2013-05-27 23:08:00,
2013-05-27 19:13:00,74.3,41.7,30.02,WSW,257,3.0,11.0,31,0.00,,---,0.00,VWS V14.00,2013-05-27 23:13:00,
2013-05-27 19:18:00,74.2,41.7,30.02,West,280,3.0,4.0,31,0.00,,---,0.00,VWS V14.00,2013-05-27 23:18:00,
2013-05-27 19:23:00,73.9,42.2,30.02,WSW,239,4.0,10.0,32,0.00,,---,0.00,VWS V14.00,2013-05-27 23:23:00,
2013-05-27 19:28:00,73.3,41.7,30.02,West,268,4.0,10.0,32,0.00,,---,0.00,VWS V14.00,2013-05-27 23:28:00,
2013-05-27 19:33:00,72.8,41.3,30.02,SW,214,2.0,8.0,32,0.00,,---,0.00,VWS V14.00,2013-05-27 23:33:00,
2013-05-27 19:38:00,72.4,41.7,30.02,NW,319,4.0,6.0,33,0.00,,---,0.00,VWS V14.00,2013-05-27 23:38:00,
2013-05-27 19:43:00,72.2,41.5,30.02,SW,233,1.0,7.0,33,0.00,,---,0.00,VWS V14.00,2013-05-27 23:43:00,
2013-05-27 19:48:00,71.6,41.8,30.02,WNW,291,1.0,8.0,34,0.00,,---,0.00,VWS V14.00,2013-05-27 23:48:00,
2013-05-27 19:53:00,71.1,41.3,30.02,North,353,1.0,8.0,34,0.00,,---,0.00,VWS V14.00,2013-05-27 23:53:00,
2013-05-27 19:58:00,70.7,41.0,30.02,SW,220,3.0,7.0,34,0.00,,---,0.00,VWS V14.00,2013-05-27 23:58:00,
2013-05-27 20:03:00,70.4,40.7,30.02,WNW,293,2.0,6.0,34,0.00,,---,0.00,VWS V14.00,2013-05-28 00:03:00,
2013-05-27 20:08:00,70.1,40.5,30.02,West,271,1.0,5.0,34,0.00,,---,0.00,VWS V14.00,2013-05-28 00:08:00,
2013-05-27 20:13:00,69.9,41.0,30.02,WSW,239,0.0,7.0,35,0.00,,---,0.00,VWS V14.00,2013-05-28 00:13:00,
2013-05-27 20:18:00,69.7,40.8,30.03,West,277,3.0,9.0,35,0.00,,---,0.00,VWS V14.00,2013-05-28 00:18:00,
2013-05-27 20:23:00,69.5,40.7,30.03,WNW,287,4.0,8.0,35,0.00,,---,0.00,VWS V14.00,2013-05-28 00:23:00,
2013-05-27 20:29:00,69.4,41.3,30.03,SW,232,4.0,4.0,36,0.00,,---,0.00,VWS V14.00,2013-05-28 00:29:00,
2013-05-27 20:34:00,69.2,41.1,30.03,West,280,3.0,4.0,36,0.00,,---,0.00,VWS V14.00,2013-05-28 00:34:00,
2013-05-27 20:39:00,69.1,41.0,30.03,WNW,285,0.0,1.0,36,0.00,,---,0.00,VWS V14.00,2013-05-28 00:39:00,
2013-05-27 20:44:00,68.9,40.9,30.03,West,264,5.0,5.0,36,0.00,,---,0.00,VWS V14.00,2013-05-28 00:44:00,
2013-05-27 20:49:00,68.8,41.5,30.03,West,262,0.0,4.0,37,0.00,,---,0.00,VWS V14.00,2013-05-28 00:49:00,
2013-05-27 20:54:00,68.6,41.3,30.03,West,273,3.0,4.0,37,0.00,,---,0.00,VWS V14.00,2013-05-28 00:54:00,
2013-05-27 20:59:00,68.3,41.0,30.04,WSW,257,0.0,4.0,37,0.00,,---,0.00,VWS V14.00,2013-05-28 00:59:00,
2013-05-27 21:04:00,68.1,41.6,30.04,WNW,291,6.0,7.0,38,0.00,,---,0.00,VWS V14.00,2013-05-28 01:04:00,
2013-05-27 21:09:00,67.9,42.1,30.04,SW,235,3.0,3.0,39,0.00,,---,0.00,VWS V14.00,2013-05-28 01:09:00,
2013-05-27 21:14:00,67.8,42.0,30.04,WNW,284,3.0,6.0,39,0.00,,---,0.00,VWS V14.00,2013-05-28 01:14:00,
2013-05-27 21:19:00,67.6,41.8,30.04,SW,236,1.0,4.0,39,0.00,,---,0.00,VWS V14.00,2013-05-28 01:19:00,
2013-05-27 21:24:00,67.3,42.2,30.04,West,279,1.0,4.0,40,0.00,,---,0.00,VWS V14.00,2013-05-28 01:24:00,
2013-05-27 21:29:00,67.1,42.0,30.04,West,263,1.0,7.0,40,0.00,,---,0.00,VWS V14.00,2013-05-28 01:29:00,
2013-05-27 21:35:00,67.0,42.5,30.04,West,279,0.0,4.0,41,0.00,,---,0.00,VWS V14.00,2013-05-28 01:35:00,
2013-05-27 21:40:00,66.7,42.3,30.05,West,273,3.0,4.0,41,0.00,,---,0.00,VWS V14.00,2013-05-28 01:40:00,
2013-05-27 21:45:00,66.6,42.2,30.04,West,274,0.0,5.0,41,0.00,,---,0.00,VWS V14.00,2013-05-28 01:45:00,
2013-05-27 21:50:00,66.4,42.6,30.05,WNW,296,2.0,3.0,42,0.00,,---,0.00,VWS V14.00,2013-05-28 01:50:00,
2013-05-27 21:55:00,66.2,42.5,30.05,WNW,293,2.0,6.0,42,0.00,,---,0.00,VWS V14.00,2013-05-28 01:55:00,
2013-05-27 22:00:00,66.1,42.4,30.05,NW,317,2.0,5.0,42,0.00,,---,0.00,VWS V14.00,2013-05-28 02:00:00,
2013-05-27 22:05:00,66.2,42.5,30.05,NW,304,2.0,5.0,42,0.00,,---,0.00,VWS V14.00,2013-05-28 02:05:00,
2013-05-27 22:10:00,65.9,42.8,30.05,WNW,285,3.0,3.0,43,0.00,,---,0.00,VWS V14.00,2013-05-28 02:10:00,
2013-05-27 22:15:00,65.8,42.7,30.05,West,280,2.0,5.0,43,0.00,,---,0.00,VWS V14.00,2013-05-28 02:15:00,
2013-05-27 22:20:00,65.6,42.5,30.05,NW,307,0.0,4.0,43,0.00,,---,0.00,VWS V14.00,2013-05-28 02:20:00,
2013-05-27 22:25:00,65.4,42.9,30.05,NW,304,4.0,5.0,44,0.00,,---,0.00,VWS V14.00,2013-05-28 02:25:00,
2013-05-27 22:31:00,65.3,42.8,30.05,West,264,2.0,3.0,44,0.00,,---,0.00,VWS V14.00,2013-05-28 02:31:00,
2013-05-27 22:36:00,65.1,43.3,30.05,WNW,297,2.0,3.0,45,0.00,,---,0.00,VWS V14.00,2013-05-28 02:36:00,
2013-05-27 22:41:00,64.9,43.1,30.05,WNW,296,1.0,3.0,45,0.00,,---,0.00,VWS V14.00,2013-05-28 02:41:00,
2013-05-27 22:46:00,64.8,43.0,30.06,WNW,288,3.0,4.0,45,0.00,,---,0.00,VWS V14.00,2013-05-28 02:46:00,
2013-05-27 22:51:00,64.6,43.4,30.06,WNW,301,1.0,3.0,46,0.00,,---,0.00,VWS V14.00,2013-05-28 02:51:00,
2013-05-27 22:56:00,64.3,43.7,30.06,NW,319,3.0,5.0,47,0.00,,---,0.00,VWS V14.00,2013-05-28 02:56:00,
2013-05-27 23:01:00,64.1,43.5,30.06,NNW,338,2.0,3.0,47,0.00,,---,0.00,VWS V14.00,2013-05-28 03:01:00,
2013-05-27 23:06:00,63.9,43.8,30.06,NW,307,1.0,4.0,48,0.00,,---,0.00,VWS V14.00,2013-05-28 03:06:00,
2013-05-27 23:11:00,63.5,43.5,30.07,West,271,4.0,4.0,48,0.00,,---,0.00,VWS V14.00,2013-05-28 03:11:00,
2013-05-27 23:16:00,63.6,43.6,30.07,West,273,1.0,6.0,48,0.00,,---,0.00,VWS V14.00,2013-05-28 03:16:00,
2013-05-27 23:21:00,63.6,43.6,30.07,NW,318,2.0,4.0,48,0.00,,---,0.00,VWS V14.00,2013-05-28 03:21:00,
2013-05-27 23:26:00,63.6,43.6,30.07,WNW,300,2.0,5.0,48,0.00,,---,0.00,VWS V14.00,2013-05-28 03:26:00,
2013-05-27 23:31:00,63.4,43.4,30.07,NNE,18,1.0,5.0,48,0.00,,---,0.00,VWS V14.00,2013-05-28 03:31:00,
2013-05-27 23:36:00,63.3,43.8,30.07,NW,316,1.0,2.0,49,0.00,,---,0.00,VWS V14.00,2013-05-28 03:36:00,
2013-05-27 23:42:00,63.4,43.9,30.07,NW,326,4.0,6.0,49,0.00,,---,0.00,VWS V14.00,2013-05-28 03:42:00,
2013-05-27 23:47:00,63.2,43.7,30.07,WNW,293,2.0,4.0,49,0.00,,---,0.00,VWS V14.00,2013-05-28 03:47:00,
2013-05-27 23:52:00,63.0,43.6,30.07,WNW,284,2.0,4.0,49,0.00,,---,0.00,VWS V14.00,2013-05-28 03:52:00,
2013-05-27 23:57:00,62.8,43.9,30.07,WNW,293,3.0,5.0,50,0.00,,---,0.00,VWS V14.00,2013-05-28 03:57:00,